Time;durP1;ratioP1;P1;durP2;ratioP2;P2;SDS_P1;SDS_P2;PMS_P1;PMS_P2;Temp;Humidity;BMP_temperature;BMP_pressure;BME280_temperature;BME280_humidity;BME280_pressure;Samples;Min_cycle;Max_cycle;Signal;HPM_P1;HPM_P2
2022/06/02 00:00:07;;;;;;;;;;;;;;;11.10;81.89;101942.69;4999735;28;19930;-78
2022/06/02 00:02:36;;;;;;;;;;;;;;;11.08;82.25;101946.56;4997082;28;19922;-77
2022/06/02 00:05:20;;;;;;;;;;;;;;;11.03;82.77;101944.31;4997930;28;19917;-78
2022/06/02 00:08:04;;;;;;;;;;;;;;;10.99;82.97;101953.75;4985368;28;19918;-77
2022/06/02 00:10:41;;;;;;;;;;;;;;;10.95;83.23;101949.66;5003030;28;19918;-78
2022/06/02 00:13:06;;;;;;;;;;;;;;;10.92;83.35;101947.28;4996993;28;19922;-77
2022/06/02 00:15:39;;;;;;;;;;;;;;;10.89;83.44;101953.84;4983274;28;19929;-78
2022/06/02 00:18:16;;;;;;;;;;;;;;;10.84;83.40;101944.53;4979151;28;19941;-77
2022/06/02 00:20:42;;;;;;;;;;;;;;;10.80;82.86;101948.56;4973208;28;19925;-78
2022/06/02 00:23:07;;;;;;;;;;;;;;;10.75;83.03;101952.56;4973229;28;19984;-77
2022/06/02 00:25:39;;;;;;;;;;;;;;;10.67;83.08;101949.78;4993870;28;19925;-77
2022/06/02 00:28:24;;;;;;;;;;;;;;;10.62;84.17;101945.88;4988062;28;19937;-76
2022/06/02 00:30:57;;;;;;;;;;;;;;;10.55;84.57;101953.72;4984345;28;19920;-76
2022/06/02 00:33:25;;;;;;;;;;;;;;;10.53;84.83;101953.03;4963266;28;19918;-77
2022/06/02 00:35:50;;;;;;;;;;;;;;;10.49;85.02;101962.41;4979267;28;19918;-77
2022/06/02 00:38:18;;;;;;;;;;;;;;;10.45;85.26;101955.63;4979376;28;19949;-77
2022/06/02 00:40:44;;;;;;;;;;;;;;;10.43;85.47;101957.66;4965188;28;19956;-75
2022/06/02 00:43:15;;;;;;;;;;;;;;;10.40;85.62;101963.31;4986684;28;20251;-77
2022/06/02 00:45:41;;;;;;;;;;;;;;;10.37;85.89;101958.25;4998392;28;19993;-77
2022/06/02 00:48:06;;;;;;;;;;;;;;;10.36;85.95;101951.19;5000804;28;19972;-77
2022/06/02 00:50:41;;;;;;;;;;;;;;;10.36;86.26;101951.19;4994894;28;19945;-77
2022/06/02 00:53:12;;;;;;;;;;;;;;;10.33;86.26;101952.34;4993384;28;19914;-76
2022/06/02 00:58:43;;;;;;;;;;;;;;;10.28;86.13;101955.47;4980432;28;19917;-76
2022/06/02 01:01:11;;;;;;;;;;;;;;;10.25;86.17;101949.53;4966777;28;19914;-76
2022/06/02 01:03:43;;;;;;;;;;;;;;;10.23;86.42;101960.44;4983348;28;19957;-75
2022/06/02 01:06:23;;;;;;;;;;;;;;;10.20;86.42;101963.44;4988726;28;19953;-77
2022/06/02 01:09:00;;;;;;;;;;;;;;;10.15;86.42;101963.06;4993366;28;19910;-77
2022/06/02 01:11:31;;;;;;;;;;;;;;;10.13;86.79;101962.34;4993283;28;19999;-78
2022/06/02 01:13:56;;;;;;;;;;;;;;;10.10;87.00;101962.66;4993615;28;19946;-77
2022/06/02 01:16:25;;;;;;;;;;;;;;;10.11;87.23;101964.38;4985871;28;19906;-77
2022/06/02 01:19:11;;;;;;;;;;;;;;;10.10;87.28;101973.41;4972142;28;19923;-77
2022/06/02 01:21:42;;;;;;;;;;;;;;;10.09;87.24;101966.34;4982198;28;19978;-78
2022/06/02 01:24:07;;;;;;;;;;;;;;;10.06;86.98;101972.03;4998788;28;19973;-77
2022/06/02 01:26:39;;;;;;;;;;;;;;;10.02;87.08;101963.41;4998864;28;19964;-78
2022/06/02 01:29:11;;;;;;;;;;;;;;;10.04;87.51;101977.56;4962415;28;19994;-77
2022/06/02 01:31:43;;;;;;;;;;;;;;;9.99;87.24;101968.25;4993998;28;19929;-77
2022/06/02 01:34:15;;;;;;;;;;;;;;;10.00;87.43;101968.09;4977212;28;19909;-77
2022/06/02 01:37:00;;;;;;;;;;;;;;;10.01;87.45;101963.59;4990930;28;20321;-76
2022/06/02 01:39:37;;;;;;;;;;;;;;;9.99;87.23;101965.56;4971787;28;19925;-76
2022/06/02 01:42:02;;;;;;;;;;;;;;;9.99;87.66;101976.31;4988233;28;20278;-77
2022/06/02 01:44:44;;;;;;;;;;;;;;;9.95;87.59;101978.44;4994192;28;19948;-77
2022/06/02 01:47:20;;;;;;;;;;;;;;;9.92;87.60;101984.13;4978633;28;19922;-77
2022/06/02 01:49:50;;;;;;;;;;;;;;;9.89;87.98;101979.91;4954265;28;19925;-77
2022/06/02 01:52:34;;;;;;;;;;;;;;;9.85;88.29;101978.53;4986620;28;19969;-76
2022/06/02 01:54:59;;;;;;;;;;;;;;;9.83;88.33;101972.44;4982743;28;19972;-77
2022/06/02 01:57:43;;;;;;;;;;;;;;;9.81;88.26;101973.59;4982870;28;19941;-77
2022/06/02 02:00:09;;;;;;;;;;;;;;;9.79;88.44;101976.41;4982501;28;19996;-77
2022/06/02 02:02:50;;;;;;;;;;;;;;;9.79;89.02;101971.03;4965326;28;19941;-78
2022/06/02 02:05:27;;;;;;;;;;;;;;;9.78;89.21;101974.72;4984428;28;20004;-77
2022/06/02 02:08:02;;;;;;;;;;;;;;;9.76;89.33;101971.34;4983650;28;19924;-77
2022/06/02 02:10:27;;;;;;;;;;;;;;;9.74;89.51;101967.97;4980785;28;20008;-77
2022/06/02 02:13:08;;;;;;;;;;;;;;;9.72;89.33;101969.94;4983622;28;20122;-77
2022/06/02 02:15:40;;;;;;;;;;;;;;;9.68;89.02;101969.38;4975757;28;19914;-77
2022/06/02 02:18:05;;;;;;;;;;;;;;;9.63;89.07;101971.66;4949778;29;19915;-77
2022/06/02 02:20:36;;;;;;;;;;;;;;;9.63;89.31;101976.19;4965654;28;19918;-77
2022/06/02 02:23:01;;;;;;;;;;;;;;;9.59;89.20;101972.97;4985147;28;19922;-77
2022/06/02 02:25:29;;;;;;;;;;;;;;;9.54;89.10;101982.47;4991684;28;19932;-77
2022/06/02 02:28:13;;;;;;;;;;;;;;;9.48;89.11;101986.59;4971925;28;19917;-76
2022/06/02 02:30:50;;;;;;;;;;;;;;;9.42;89.69;101979.94;4985206;28;19918;-77
2022/06/02 02:33:31;;;;;;;;;;;;;;;9.38;90.01;101978.56;5013017;23;19921;-33
2022/06/02 02:36:00;;;;;;;;;;;;;;;9.31;89.49;101988.19;4968290;29;19934;-29
2022/06/02 02:38:45;;;;;;;;;;;;;;;9.28;89.80;101983.13;4966138;29;20216;-30
2022/06/02 02:41:12;;;;;;;;;;;;;;;9.29;90.40;101989.34;4948546;29;20373;-31
2022/06/02 02:43:40;;;;;;;;;;;;;;;9.29;91.27;101984.78;4971630;28;19924;-31
2022/06/02 02:46:10;;;;;;;;;;;;;;;9.28;91.38;101977.75;4966582;28;19931;-30
2022/06/02 02:48:54;;;;;;;;;;;;;;;9.29;91.23;101987.50;4966394;28;19981;-31
2022/06/02 02:51:21;;;;;;;;;;;;;;;9.26;90.91;101985.09;4952745;29;19907;-30
2022/06/02 02:53:51;;;;;;;;;;;;;;;9.24;90.53;101989.75;4951767;29;19919;-31
2022/06/02 02:56:26;;;;;;;;;;;;;;;9.23;90.90;101985.38;4964893;28;19966;-30
2022/06/02 02:59:10;;;;;;;;;;;;;;;9.22;90.85;101986.41;4977622;28;19918;-31
2022/06/02 03:01:54;;;;;;;;;;;;;;;9.22;90.79;101989.91;4959331;29;19918;-31
2022/06/02 03:04:27;;;;;;;;;;;;;;;9.19;90.75;101992.06;4954923;29;19918;-28
2022/06/02 03:06:54;;;;;;;;;;;;;;;9.16;91.04;101984.25;4962835;29;19926;-31
2022/06/02 03:09:32;;;;;;;;;;;;;;;9.15;91.27;101994.16;4959844;29;19927;-31
2022/06/02 03:12:00;;;;;;;;;;;;;;;9.15;91.33;101993.31;4951855;29;19929;-31
2022/06/02 03:14:28;;;;;;;;;;;;;;;9.12;91.65;101999.84;4963124;29;19926;-31
2022/06/02 03:16:58;;;;;;;;;;;;;;;9.12;91.44;101988.25;4956805;29;19946;-30
2022/06/02 03:19:26;;;;;;;;;;;;;;;9.12;91.44;101993.63;4983536;28;19966;-31
2022/06/02 03:21:53;;;;;;;;;;;;;;;9.10;91.46;102000.97;4969406;29;19918;-31
2022/06/02 03:24:30;;;;;;;;;;;;;;;9.07;91.00;101990.53;4981297;28;19957;-31
2022/06/02 03:27:18;;;;;;;;;;;;;;;9.00;90.90;101996.47;4965840;28;19929;-30
2022/06/02 03:29:50;;;;;;;;;;;;;;;8.98;91.34;101993.06;4985185;28;19942;-30
2022/06/02 03:32:26;;;;;;;;;;;;;;;8.97;91.14;101996.72;4983189;28;19942;-32
2022/06/02 03:35:12;;;;;;;;;;;;;;;8.98;91.61;102000.28;4978455;28;19922;-32
2022/06/02 03:37:40;;;;;;;;;;;;;;;8.96;91.39;101999.59;4939216;29;19939;-29
2022/06/02 03:40:09;;;;;;;;;;;;;;;8.96;91.77;101999.59;4959255;29;19918;-30
2022/06/02 03:42:41;;;;;;;;;;;;;;;8.96;91.66;102000.44;4951612;29;19919;-31
2022/06/02 03:45:19;;;;;;;;;;;;;;;8.96;91.91;102000.44;4967047;29;19918;-30
2022/06/02 03:47:44;;;;;;;;;;;;;;;8.97;92.05;102006.63;4965259;28;19942;-30
2022/06/02 03:50:22;;;;;;;;;;;;;;;8.99;91.46;102000.13;4969095;29;19914;-31
2022/06/02 03:52:52;;;;;;;;;;;;;;;9.05;91.58;102009.44;4967984;29;19919;-29
2022/06/02 03:55:26;;;;;;;;;;;;;;;9.10;91.55;102015.25;4954925;29;19941;-30
2022/06/02 03:57:57;;;;;;;;;;;;;;;9.13;91.00;102012.25;4965057;29;19918;-31
2022/06/02 04:00:24;;;;;;;;;;;;;;;9.21;90.87;102014.22;4955375;29;19918;-29
2022/06/02 04:02:53;;;;;;;;;;;;;;;9.24;90.53;102013.94;4938879;29;20352;-31
2022/06/02 04:05:27;;;;;;;;;;;;;;;9.29;90.52;102022.41;4950812;29;19925;-30
2022/06/02 04:07:52;;;;;;;;;;;;;;;9.31;90.29;102004.31;4950291;29;19957;-31
2022/06/02 04:10:36;;;;;;;;;;;;;;;9.38;90.60;102009.97;4958459;29;19915;-31
2022/06/02 04:16:01;;;;;;;;;;;;;;;9.44;89.98;102020.97;4956196;29;19925;-31
2022/06/02 04:18:32;;;;;;;;;;;;;;;9.51;90.18;102023.94;4966110;29;19926;-31
2022/06/02 04:21:10;;;;;;;;;;;;;;;9.57;89.80;102019.81;4960058;29;19930;-30
2022/06/02 04:23:50;;;;;;;;;;;;;;;9.62;89.74;102028.28;4954862;29;19961;-30
2022/06/02 04:26:28;;;;;;;;;;;;;;;9.65;89.74;102023.44;4952827;29;19918;-30
2022/06/02 04:29:02;;;;;;;;;;;;;;;9.69;89.56;102032.09;4946458;29;19919;-31
2022/06/02 04:31:32;;;;;;;;;;;;;;;9.82;90.21;102035.28;4972321;29;19927;-33
2022/06/02 04:34:16;;;;;;;;;;;;;;;9.91;89.92;102038.06;4961819;29;19945;-31
2022/06/02 04:36:50;;;;;;;;;;;;;;;9.92;89.63;102037.06;4966008;29;19926;-31
2022/06/02 04:39:20;;;;;;;;;;;;;;;9.92;89.81;102045.97;4960891;29;19914;-30
2022/06/02 04:41:55;;;;;;;;;;;;;;;9.99;89.99;102057.84;4950359;29;19906;-31
2022/06/02 04:44:23;;;;;;;;;;;;;;;10.10;90.63;102056.81;4955263;29;19960;-31
2022/06/02 04:47:07;;;;;;;;;;;;;;;10.21;90.72;102055.75;4963030;29;19942;-29
2022/06/02 04:49:32;;;;;;;;;;;;;;;10.36;90.68;102059.69;4963884;29;19918;-31
2022/06/02 04:52:11;;;;;;;;;;;;;;;10.50;90.47;102061.00;4973445;29;20345;-30
2022/06/02 04:54:57;;;;;;;;;;;;;;;10.56;89.97;102063.09;4972645;29;19918;-32
2022/06/02 04:57:23;;;;;;;;;;;;;;;10.68;89.10;102053.78;4969686;29;19942;-32
2022/06/02 04:59:52;;;;;;;;;;;;;;;10.87;88.75;102057.31;4968286;29;20183;-28
2022/06/02 05:02:36;;;;;;;;;;;;;;;10.93;88.65;102056.72;4956092;29;19921;-31
2022/06/02 05:05:11;;;;;;;;;;;;;;;10.99;87.82;102061.50;4963100;29;19906;-29
2022/06/02 05:07:36;;;;;;;;;;;;;;;11.25;87.91;102060.72;4967374;29;19914;-31
2022/06/02 05:10:07;;;;;;;;;;;;;;;11.45;87.85;102070.25;4954616;29;19926;-30
2022/06/02 05:12:36;;;;;;;;;;;;;;;11.64;87.67;102072.78;4952149;29;19958;-32
2022/06/02 05:15:06;;;;;;;;;;;;;;;11.77;86.89;102074.19;4931655;29;20312;-31
2022/06/02 05:17:36;;;;;;;;;;;;;;;11.80;85.63;102066.63;4963593;29;20386;-30
2022/06/02 05:20:14;;;;;;;;;;;;;;;11.85;85.11;102079.66;4954954;29;19924;-30
2022/06/02 05:22:59;;;;;;;;;;;;;;;11.89;84.52;102074.81;4964759;28;19918;-30
2022/06/02 05:25:33;;;;;;;;;;;;;;;11.97;84.39;102072.97;4956774;28;19937;-30
2022/06/02 05:28:17;;;;;;;;;;;;;;;12.00;84.32;102075.34;4963341;29;19915;-30
2022/06/02 05:30:45;;;;;;;;;;;;;;;12.13;84.59;102072.22;4967971;29;19926;-30
2022/06/02 05:33:16;;;;;;;;;;;;;;;12.26;84.66;102080.69;4967565;29;19981;-31
2022/06/02 05:35:41;;;;;;;;;;;;;;;12.46;84.52;102084.00;4969355;29;19918;-31
2022/06/02 05:38:07;;;;;;;;;;;;;;;12.69;84.36;102088.75;4949454;29;19933;-30
2022/06/02 05:40:36;;;;;;;;;;;;;;;12.92;82.92;102088.97;4953382;29;19918;-30
2022/06/02 05:43:14;;;;;;;;;;;;;;;13.15;81.57;102090.00;4968523;29;19921;-30
2022/06/02 05:45:42;;;;;;;;;;;;;;;13.39;78.79;102081.06;4956550;29;19915;-30
2022/06/02 05:48:24;;;;;;;;;;;;;;;13.53;76.12;102086.81;4933742;29;19918;-30
2022/06/02 05:51:08;;;;;;;;;;;;;;;13.63;75.88;102094.75;4940683;29;19915;-31
2022/06/02 05:53:33;;;;;;;;;;;;;;;13.72;75.87;102089.16;4959695;29;19940;-30
2022/06/02 05:56:20;;;;;;;;;;;;;;;13.89;76.31;102089.97;4950792;29;19918;-31
2022/06/02 05:59:03;;;;;;;;;;;;;;;14.11;73.15;102101.88;4955242;29;19914;-32
2022/06/02 06:01:34;;;;;;;;;;;;;;;14.20;71.47;102089.19;4960815;29;19942;-30
2022/06/02 06:04:00;;;;;;;;;;;;;;;14.21;71.10;102094.41;4951614;29;19974;-31
2022/06/02 06:06:39;;;;;;;;;;;;;;;14.26;71.49;102096.59;4967638;29;19946;-31
2022/06/02 06:09:09;;;;;;;;;;;;;;;14.37;70.90;102082.66;4935273;29;19914;-31
2022/06/02 06:12:01;;;;;;;;;;;;;;;14.40;70.16;102095.88;4951149;29;19923;-30
2022/06/02 06:14:31;;;;;;;;;;;;;;;14.46;70.90;102106.00;4935460;29;19953;-30
2022/06/02 06:17:10;;;;;;;;;;;;;;;14.70;69.12;102090.66;4948877;29;19925;-29
2022/06/02 06:19:59;;;;;;;;;;;;;;;15.07;68.51;102100.75;4968621;29;19958;-31
2022/06/02 06:22:30;;;;;;;;;;;;;;;15.78;67.90;102101.31;4969224;29;19925;-31
2022/06/02 06:24:58;;;;;;;;;;;;;;;16.71;62.87;102101.69;4970015;29;19961;-32
2022/06/02 06:27:42;;;;;;;;;;;;;;;17.40;59.61;102100.31;4952094;29;19914;-30
2022/06/02 06:30:10;;;;;;;;;;;;;;;17.63;56.34;102102.81;4968368;29;19977;-30
2022/06/02 06:32:35;;;;;;;;;;;;;;;17.46;55.14;102102.28;4968429;29;19918;-30
2022/06/02 06:35:05;;;;;;;;;;;;;;;17.40;56.99;102103.88;4962811;28;19926;-29
2022/06/02 06:37:33;;;;;;;;;;;;;;;17.25;57.01;102103.97;4959378;28;19981;-30
2022/06/02 06:40:05;;;;;;;;;;;;;;;17.38;57.82;102102.38;4968837;29;19914;-30
2022/06/02 06:42:33;;;;;;;;;;;;;;;17.38;56.10;102107.81;4969787;29;19915;-31
2022/06/02 06:45:31;;;;;;;;;;;;;;;17.15;55.92;102108.91;4969605;29;20606;-31
2022/06/02 06:48:06;;;;;;;;;;;;;;;16.73;55.90;102115.94;4936352;29;19915;-31
2022/06/02 06:50:34;;;;;;;;;;;;;;;16.39;56.59;102120.13;4970040;28;20361;-31
2022/06/02 06:52:59;;;;;;;;;;;;;;;16.12;57.80;102120.81;4988992;28;20337;-29
2022/06/02 06:55:31;;;;;;;;;;;;;;;15.86;59.14;102122.13;4989024;28;19929;-30
2022/06/02 06:58:15;;;;;;;;;;;;;;;15.63;58.64;102133.00;4970877;28;19913;-30
2022/06/02 07:00:42;;;;;;;;;;;;;;;16.38;57.83;102134.75;4989110;28;19937;-31
2022/06/02 07:03:07;;;;;;;;;;;;;;;17.64;55.01;102139.88;4990490;28;19937;-30
2022/06/02 07:05:36;;;;;;;;;;;;;;;18.91;50.53;102147.78;4972742;28;19925;-30
2022/06/02 07:08:01;;;;;;;;;;;;;;;19.56;48.76;102139.03;4973837;28;19933;-31
2022/06/02 07:10:38;;;;;;;;;;;;;;;20.95;45.46;102133.22;4991540;28;19913;-30
2022/06/02 07:13:22;;;;;;;;;;;;;;;22.12;40.81;102143.66;4974754;28;19914;-30
2022/06/02 07:15:59;;;;;;;;;;;;;;;23.47;38.59;102145.25;4991986;28;19902;-31
2022/06/02 07:18:43;;;;;;;;;;;;;;;24.48;35.23;102147.88;4992032;28;19918;-32
2022/06/02 07:21:26;;;;;;;;;;;;;;;24.71;35.25;102149.72;4978491;28;19925;-32
2022/06/02 07:23:55;;;;;;;;;;;;;;;24.65;35.16;102148.81;4973845;29;19973;-30
2022/06/02 07:26:27;;;;;;;;;;;;;;;24.61;35.37;102155.84;4985732;28;19924;-32
2022/06/02 07:29:12;;;;;;;;;;;;;;;25.06;34.55;102155.06;4974668;28;19918;-31
2022/06/02 07:31:43;;;;;;;;;;;;;;;24.91;34.82;102161.16;4990027;28;19912;-31
2022/06/02 07:34:12;;;;;;;;;;;;;;;25.89;31.92;102168.38;4972997;28;19919;-32
2022/06/02 07:36:50;;;;;;;;;;;;;;;25.45;33.55;102170.94;4974336;28;19950;-32
2022/06/02 07:39:21;;;;;;;;;;;;;;;25.33;34.28;102169.13;4956642;29;19914;-33
2022/06/02 07:42:05;;;;;;;;;;;;;;;25.09;34.87;102162.88;4964100;28;19906;-32
2022/06/02 07:44:57;;;;;;;;;;;;;;;25.84;33.27;102172.72;4991403;28;19913;-32
2022/06/02 07:47:30;;;;;;;;;;;;;;;26.82;30.47;102168.53;4989324;28;19977;-32
2022/06/02 07:50:05;;;;;;;;;;;;;;;25.95;32.09;102176.47;4976945;28;19910;-31
2022/06/02 07:52:50;;;;;;;;;;;;;;;26.06;31.04;102170.00;4983552;28;19940;-32
2022/06/02 07:55:19;;;;;;;;;;;;;;;25.95;31.07;102183.91;4976813;29;19910;-32
2022/06/02 07:57:44;;;;;;;;;;;;;;;26.09;30.43;102179.69;4977811;28;19961;-31
2022/06/02 08:00:16;;;;;;;;;;;;;;;25.03;32.19;102185.88;4978881;28;19936;-31
2022/06/02 08:03:02;;;;;;;;;;;;;;;24.98;31.62;102183.03;4977518;28;19929;-30
2022/06/02 08:05:46;;;;;;;;;;;;;;;23.40;35.46;102183.81;4977223;29;19915;-31
2022/06/02 08:08:15;;;;;;;;;;;;;;;24.43;33.88;102183.53;4982282;28;19918;-32
2022/06/02 08:10:44;;;;;;;;;;;;;;;24.14;34.35;102177.94;4977744;29;20475;-31
2022/06/02 08:13:15;;;;;;;;;;;;;;;22.80;35.49;102183.78;4977225;29;19999;-31
2022/06/02 08:15:53;;;;;;;;;;;;;;;24.09;33.47;102186.06;4961517;28;20002;-31
2022/06/02 08:18:37;;;;;;;;;;;;;;;23.62;34.72;102186.88;4985027;28;19918;-31
2022/06/02 08:21:21;;;;;;;;;;;;;;;24.98;33.01;102183.03;4997168;28;19912;-32
2022/06/02 08:23:56;;;;;;;;;;;;;;;25.80;31.32;102173.44;4993789;28;19929;-32
2022/06/02 08:26:30;;;;;;;;;;;;;;;26.01;29.86;102183.75;4985139;28;19913;-33
2022/06/02 08:29:14;;;;;;;;;;;;;;;25.33;31.32;102180.13;4973543;29;19928;-32
2022/06/02 08:31:55;;;;;;;;;;;;;;;24.96;32.53;102177.78;4977539;29;19972;-32
2022/06/02 08:34:35;;;;;;;;;;;;;;;25.05;31.58;102172.69;4974925;28;19924;-33
2022/06/02 08:37:23;;;;;;;;;;;;;;;25.53;30.67;102185.16;4995151;28;19929;-33
2022/06/02 08:40:03;;;;;;;;;;;;;;;24.85;32.04;102180.56;4970808;29;19925;-34
2022/06/02 08:42:34;;;;;;;;;;;;;;;25.94;30.81;102185.84;4960967;29;19918;-33
2022/06/02 08:45:18;;;;;;;;;;;;;;;26.04;30.39;102186.00;4982368;28;19906;-33
2022/06/02 08:47:50;;;;;;;;;;;;;;;27.88;27.50;102197.47;4983016;28;19929;-33
2022/06/02 08:50:24;;;;;;;;;;;;;;;27.60;28.44;102182.88;4977299;29;19918;-32
2022/06/02 08:53:08;;;;;;;;;;;;;;;27.39;28.40;102194.84;4977346;29;19914;-32
2022/06/02 08:55:53;;;;;;;;;;;;;;;27.23;28.25;102197.47;4989416;28;19918;-31
2022/06/02 08:58:37;;;;;;;;;;;;;;;25.68;29.56;102192.03;4997534;28;20179;-32
2022/06/02 09:01:05;;;;;;;;;;;;;;;25.63;31.54;102185.31;4982718;28;19946;-31
2022/06/02 09:03:48;;;;;;;;;;;;;;;26.35;31.30;102185.59;4980359;28;19929;-35
2022/06/02 09:06:25;;;;;;;;;;;;;;;27.26;29.40;102190.56;4995546;28;19914;-32
2022/06/02 09:08:57;;;;;;;;;;;;;;;27.53;30.76;102193.31;4989853;28;19910;-33
2022/06/02 09:11:41;;;;;;;;;;;;;;;29.14;27.46;102192.00;4995284;28;19914;-32
2022/06/02 09:14:30;;;;;;;;;;;;;;;29.43;26.92;102195.91;5015170;28;19965;-33
2022/06/02 09:16:58;;;;;;;;;;;;;;;29.79;25.92;102195.94;4935602;29;19946;-33
2022/06/02 09:19:32;;;;;;;;;;;;;;;29.67;27.68;102195.38;4978674;28;19929;-33
2022/06/02 09:22:08;;;;;;;;;;;;;;;28.92;28.79;102195.81;4978142;29;19910;-32
2022/06/02 09:24:33;;;;;;;;;;;;;;;26.17;31.60;102200.50;4959896;29;19916;-33
2022/06/02 09:27:17;;;;;;;;;;;;;;;24.76;34.92;102191.13;4976286;29;19942;-32
2022/06/02 09:29:45;;;;;;;;;;;;;;;23.70;36.19;102193.94;4990770;28;19930;-32
2022/06/02 09:32:15;;;;;;;;;;;;;;;22.35;39.26;102189.63;4984593;28;20413;-32
2022/06/02 09:35:13;;;;;;;;;;;;;;;22.57;39.84;102190.84;4995049;28;19969;-31
2022/06/02 09:37:48;;;;;;;;;;;;;;;24.47;37.16;102193.00;4958639;28;19973;-31
2022/06/02 09:40:25;;;;;;;;;;;;;;;25.81;34.55;102198.03;4982851;28;19919;-33
2022/06/02 09:42:59;;;;;;;;;;;;;;;25.56;34.49;102195.66;4964702;28;19997;-33
2022/06/02 09:45:41;;;;;;;;;;;;;;;24.62;34.84;102201.59;4995391;28;19914;-31
2022/06/02 09:48:10;;;;;;;;;;;;;;;24.07;35.91;102199.25;4993969;28;19914;-30
2022/06/02 09:50:38;;;;;;;;;;;;;;;23.33;36.66;102199.59;4993202;28;19926;-33
2022/06/02 09:53:09;;;;;;;;;;;;;;;22.42;39.82;102204.09;4975128;29;19918;-32
2022/06/02 09:55:37;;;;;;;;;;;;;;;21.63;40.94;102190.06;4976303;28;19945;-31
2022/06/02 09:58:16;;;;;;;;;;;;;;;21.10;43.75;102184.94;4976045;28;19996;-31
2022/06/02 10:00:41;;;;;;;;;;;;;;;20.67;44.70;102179.22;4979039;28;19902;-31
2022/06/02 10:03:09;;;;;;;;;;;;;;;20.42;43.99;102179.09;4991262;28;19981;-30
2022/06/02 10:05:47;;;;;;;;;;;;;;;20.29;44.95;102177.22;4977888;28;19924;-32
2022/06/02 10:08:15;;;;;;;;;;;;;;;20.98;44.38;102182.03;4995531;28;19922;-32
2022/06/02 10:10:58;;;;;;;;;;;;;;;22.28;42.73;102184.22;4978569;28;19916;-33
2022/06/02 10:13:24;;;;;;;;;;;;;;;23.70;39.27;102182.94;4988244;28;19942;-34
2022/06/02 10:16:08;;;;;;;;;;;;;;;24.32;37.99;102183.28;4985357;28;19961;-33
2022/06/02 10:18:52;;;;;;;;;;;;;;;25.44;35.76;102183.91;4992427;28;19918;-33
2022/06/02 10:21:17;;;;;;;;;;;;;;;25.05;35.58;102180.13;4987225;28;19928;-32
2022/06/02 10:24:01;;;;;;;;;;;;;;;25.00;36.35;102180.88;4976550;29;19902;-33
2022/06/02 10:26:45;;;;;;;;;;;;;;;25.21;37.43;102176.59;4987386;28;20000;-30
2022/06/02 10:29:29;;;;;;;;;;;;;;;25.81;34.66;102175.97;4996479;28;20468;-32
2022/06/02 10:31:54;;;;;;;;;;;;;;;25.80;34.42;102163.28;4996137;28;19926;-32
2022/06/02 10:34:36;;;;;;;;;;;;;;;26.06;34.40;102156.22;4995823;28;19922;-33
2022/06/02 10:37:08;;;;;;;;;;;;;;;26.26;33.35;102165.88;4978570;28;19956;-34
2022/06/02 10:39:45;;;;;;;;;;;;;;;26.09;34.05;102162.31;4995555;28;19941;-33
2022/06/02 10:42:23;;;;;;;;;;;;;;;26.27;34.61;102162.03;4995526;28;19902;-34
2022/06/02 10:44:54;;;;;;;;;;;;;;;27.29;32.62;102167.94;4996614;28;19969;-32
2022/06/02 10:47:31;;;;;;;;;;;;;;;27.19;31.83;102168.66;4993649;28;19926;-33
2022/06/02 10:49:56;;;;;;;;;;;;;;;26.95;33.04;102157.06;4976073;29;19903;-32
2022/06/02 10:52:30;;;;;;;;;;;;;;;26.56;33.02;102164.63;4976072;28;19918;-33
2022/06/02 10:55:15;;;;;;;;;;;;;;;27.15;31.97;102164.75;4976904;28;19921;-32
2022/06/02 10:57:49;;;;;;;;;;;;;;;27.50;31.51;102158.72;4978383;28;19910;-33
2022/06/02 11:00:19;;;;;;;;;;;;;;;26.88;32.15;102157.28;4976800;29;19930;-31
2022/06/02 11:02:56;;;;;;;;;;;;;;;26.83;32.52;102148.94;4976189;29;19957;-32
2022/06/02 11:05:30;;;;;;;;;;;;;;;26.59;33.30;102144.78;4976859;28;19940;-33
2022/06/02 11:08:05;;;;;;;;;;;;;;;26.31;33.32;102152.16;4969563;28;19922;-34
2022/06/02 11:10:33;;;;;;;;;;;;;;;26.15;34.11;102147.53;4994489;28;19914;-33
2022/06/02 11:13:03;;;;;;;;;;;;;;;25.75;34.29;102145.78;4959422;29;19914;-33
2022/06/02 11:15:29;;;;;;;;;;;;;;;24.84;35.25;102149.44;4985942;28;19910;-32
2022/06/02 11:17:56;;;;;;;;;;;;;;;23.70;36.96;102152.69;4994904;28;19911;-30
2022/06/02 11:20:31;;;;;;;;;;;;;;;24.32;37.01;102142.03;4994988;28;19973;-33
2022/06/02 11:23:15;;;;;;;;;;;;;;;25.16;35.64;102147.03;4992628;28;19957;-32
2022/06/02 11:25:45;;;;;;;;;;;;;;;25.16;34.98;102149.78;4998686;28;19949;-33
2022/06/02 11:28:10;;;;;;;;;;;;;;;24.68;36.24;102156.56;4991056;28;19925;-31
2022/06/02 11:30:47;;;;;;;;;;;;;;;24.38;36.38;102144.88;4982602;28;19963;-32
2022/06/02 11:33:15;;;;;;;;;;;;;;;23.76;36.61;102154.50;4981907;29;19981;-32
2022/06/02 11:35:44;;;;;;;;;;;;;;;23.09;37.83;102148.38;4945660;29;19919;-31
2022/06/02 11:38:12;;;;;;;;;;;;;;;22.68;38.67;102147.25;4963126;29;19915;-30
2022/06/02 11:40:37;;;;;;;;;;;;;;;22.24;39.24;102147.34;4962791;29;19950;-33
2022/06/02 11:43:13;;;;;;;;;;;;;;;22.31;38.58;102144.53;4964940;29;20283;-32
2022/06/02 11:45:50;;;;;;;;;;;;;;;22.64;38.49;102137.78;4974057;29;19919;-32
2022/06/02 11:48:15;;;;;;;;;;;;;;;23.13;37.65;102144.09;4963577;29;20255;-32
2022/06/02 11:50:50;;;;;;;;;;;;;;;23.07;38.01;102145.06;4962287;29;20001;-30
2022/06/02 11:53:24;;;;;;;;;;;;;;;23.20;37.99;102129.19;4945864;29;19917;-32
2022/06/02 11:56:01;;;;;;;;;;;;;;;23.42;37.28;102132.22;4963163;29;20013;-32
2022/06/02 11:58:36;;;;;;;;;;;;;;;24.14;35.59;102142.16;4946831;29;19978;-32
2022/06/02 12:01:21;;;;;;;;;;;;;;;24.40;35.29;102128.97;4963247;29;19919;-31
2022/06/02 12:04:05;;;;;;;;;;;;;;;24.48;34.68;102131.38;4964048;29;19942;-33
2022/06/02 12:06:39;;;;;;;;;;;;;;;25.09;32.45;102124.31;4962727;29;19935;-33
2022/06/02 12:09:32;;;;;;;;;;;;;;;25.17;32.18;102120.31;4946029;29;19926;-33
2022/06/02 12:12:18;;;;;;;;;;;;;;;24.66;32.65;102122.09;4952560;29;19914;-31
2022/06/02 12:14:49;;;;;;;;;;;;;;;24.57;33.82;102115.31;4971554;29;19911;-32
2022/06/02 12:17:20;;;;;;;;;;;;;;;24.73;32.96;102115.38;4961063;29;20335;-32
2022/06/02 12:19:48;;;;;;;;;;;;;;;24.46;33.62;102117.00;4961093;29;19974;-33
2022/06/02 12:22:31;;;;;;;;;;;;;;;24.17;33.26;102110.59;4960756;29;19914;-33
2022/06/02 12:24:59;;;;;;;;;;;;;;;23.71;33.84;102107.63;4943634;29;20543;-33
2022/06/02 12:27:31;;;;;;;;;;;;;;;23.66;34.17;102105.59;4960848;29;19942;-32
2022/06/02 12:30:17;;;;;;;;;;;;;;;23.93;33.66;102110.63;4960927;29;19919;-32
2022/06/02 12:33:01;;;;;;;;;;;;;;;24.04;34.54;102104.31;4944451;29;19915;-32
2022/06/02 12:35:32;;;;;;;;;;;;;;;24.09;33.83;102109.06;4961210;29;19947;-32
2022/06/02 12:38:00;;;;;;;;;;;;;;;24.43;32.98;102103.72;4952445;29;19965;-32
2022/06/02 12:40:29;;;;;;;;;;;;;;;24.61;32.46;102103.56;4956606;29;19910;-31
2022/06/02 12:43:13;;;;;;;;;;;;;;;24.52;32.59;102099.53;4956733;29;19902;-33
2022/06/02 12:45:45;;;;;;;;;;;;;;;24.64;32.19;102096.72;4957632;29;19914;-32
2022/06/02 12:48:29;;;;;;;;;;;;;;;24.85;32.39;102089.69;4953750;29;19919;-31
2022/06/02 12:51:13;;;;;;;;;;;;;;;24.89;31.83;102101.91;4956935;29;19978;-32
2022/06/02 12:53:38;;;;;;;;;;;;;;;24.73;31.71;102098.03;4948582;29;20362;-31
2022/06/02 12:56:08;;;;;;;;;;;;;;;24.61;31.88;102099.97;4957374;29;19915;-32
2022/06/02 12:58:34;;;;;;;;;;;;;;;24.32;31.56;102092.50;4957443;29;19959;-31
2022/06/02 13:01:10;;;;;;;;;;;;;;;24.04;32.00;102096.06;4956461;29;19925;-33
2022/06/02 13:03:49;;;;;;;;;;;;;;;23.85;33.57;102089.84;4932299;29;19926;-33
2022/06/02 13:06:20;;;;;;;;;;;;;;;23.57;33.87;102093.28;4955726;29;19914;-31
2022/06/02 13:08:48;;;;;;;;;;;;;;;23.22;33.81;102094.09;4956303;29;19974;-32
2022/06/02 13:11:32;;;;;;;;;;;;;;;23.06;35.34;102099.44;4955946;29;19977;-32
2022/06/02 13:14:04;;;;;;;;;;;;;;;23.28;35.12;102102.47;4956353;29;19929;-31
2022/06/02 13:16:36;;;;;;;;;;;;;;;23.61;34.01;102099.97;4955025;29;19914;-31
2022/06/02 13:19:01;;;;;;;;;;;;;;;23.57;33.30;102097.97;4954929;29;19960;-31